Time;durP1;ratioP1;P1;durP2;ratioP2;P2;SDS_P1;SDS_P2;PMS_P1;PMS_P2;Temp;Humidity;BMP_temperature;BMP_pressure;BME280_temperature;BME280_humidity;BME280_pressure;Samples;Min_cycle;Max_cycle;Signal;HPM_P1;HPM_P2
2023/08/23 00:01:05;;;;;;;8.35;7.65;;;;;;;24.70;100.00;99318.84;5091621;28;20200;-81
2023/08/23 00:03:36;;;;;;;8.75;7.93;;;;;;;24.67;100.00;99324.16;5098601;28;20243;-81
2023/08/23 00:06:04;;;;;;;8.50;7.60;;;;;;;24.63;100.00;99318.50;5090671;28;20266;-81
2023/08/23 00:08:31;;;;;;;8.27;7.43;;;;;;;24.58;100.00;99315.13;5098746;28;20192;-82
2023/08/23 00:10:58;;;;;;;9.07;8.18;;;;;;;24.54;100.00;99315.72;5088149;28;20633;-81
2023/08/23 00:13:27;;;;;;;8.85;8.00;;;;;;;24.53;100.00;99316.06;5094198;28;20651;-81
2023/08/23 00:15:56;;;;;;;7.93;7.22;;;;;;;24.47;100.00;99309.94;5093294;28;20215;-80
2023/08/23 00:18:24;;;;;;;8.63;7.88;;;;;;;24.46;100.00;99313.78;5092789;28;20287;-81
2023/08/23 00:20:52;;;;;;;8.93;8.23;;;;;;;24.44;100.00;99312.50;5099799;28;20189;-82
2023/08/23 00:23:20;;;;;;;8.70;7.80;;;;;;;24.43;100.00;99311.69;5103458;28;20196;-81
2023/08/23 00:25:51;;;;;;;8.45;7.65;;;;;;;24.40;100.00;99311.53;5106063;28;20188;-85
2023/08/23 00:28:22;;;;;;;8.32;7.53;;;;;;;24.39;100.00;99312.66;5106388;28;20189;-81
2023/08/23 00:30:53;;;;;;;8.38;7.57;;;;;;;24.35;100.00;99319.91;5093092;28;20185;-83
2023/08/23 00:33:22;;;;;;;8.90;8.10;;;;;;;24.29;100.00;99319.22;5093064;28;20232;-80
2023/08/23 00:35:51;;;;;;;8.73;7.78;;;;;;;24.27;100.00;99320.66;5101435;28;20376;-81
2023/08/23 00:38:20;;;;;;;8.10;7.50;;;;;;;24.24;100.00;99313.91;5096417;28;20724;-81
2023/08/23 00:40:49;;;;;;;8.45;7.53;;;;;;;24.19;100.00;99319.50;5091589;28;20204;-81
2023/08/23 00:43:18;;;;;;;8.85;8.00;;;;;;;24.11;100.00;99310.13;5087093;28;20200;-82
2023/08/23 00:45:46;;;;;;;9.10;8.20;;;;;;;24.10;100.00;99313.16;5084589;28;20349;-84
2023/08/23 00:48:15;;;;;;;8.45;7.65;;;;;;;24.07;100.00;99320.09;5095277;28;20251;-82
2023/08/23 00:50:45;;;;;;;9.45;8.50;;;;;;;24.07;100.00;99332.97;5091697;28;20709;-83
2023/08/23 00:53:14;;;;;;;8.10;7.47;;;;;;;24.02;100.00;99325.69;5089584;28;20189;-82
2023/08/23 00:55:41;;;;;;;8.27;7.60;;;;;;;24.00;100.00;99327.94;5059327;28;20543;-80
2023/08/23 00:58:09;;;;;;;9.02;7.90;;;;;;;23.98;100.00;99338.38;5086862;28;20201;-82
2023/08/23 01:00:37;;;;;;;8.27;7.43;;;;;;;23.98;100.00;99337.59;5090893;28;20644;-81
2023/08/23 01:03:05;;;;;;;8.68;7.97;;;;;;;23.98;100.00;99326.66;5085764;28;20229;-82
2023/08/23 01:06:08;;;;;;;8.32;7.53;;;;;;;23.95;100.00;99338.19;5094794;28;20287;-81
2023/08/23 01:08:51;;;;;;;8.52;7.82;;;;;;;23.90;100.00;99341.88;5087030;28;20246;-81
2023/08/23 01:11:46;;;;;;;8.90;8.02;;;;;;;23.88;100.00;99333.19;5092781;28;20223;-81
2023/08/23 01:14:51;;;;;;;8.90;8.07;;;;;;;23.84;100.00;99334.94;5088050;28;20663;-80
2023/08/23 01:17:20;;;;;;;8.60;7.82;;;;;;;23.82;100.00;99344.56;5091541;28;20261;-81
2023/08/23 01:19:50;;;;;;;8.30;7.68;;;;;;;23.77;100.00;99345.50;5092058;28;20184;-81
2023/08/23 01:22:20;;;;;;;8.70;7.90;;;;;;;23.67;100.00;99343.84;5094938;28;20258;-81
2023/08/23 01:24:51;;;;;;;9.25;8.55;;;;;;;23.63;100.00;99340.13;5101662;28;20203;-81
2023/08/23 01:27:19;;;;;;;8.52;7.72;;;;;;;23.62;100.00;99340.44;5094096;28;20195;-80
2023/08/23 01:29:48;;;;;;;9.35;8.55;;;;;;;23.59;100.00;99341.06;5093624;28;20551;-81
2023/08/23 01:32:29;;;;;;;8.70;7.95;;;;;;;23.56;100.00;99339.75;5091960;28;20547;-81
2023/08/23 01:35:06;;;;;;;8.32;7.63;;;;;;;23.52;100.00;99327.81;5093996;28;20228;-84
2023/08/23 01:37:40;;;;;;;10.23;8.93;;;;;;;23.51;100.00;99333.63;5068662;28;20556;-81
2023/08/23 01:40:11;;;;;;;8.93;8.13;;;;;;;23.46;100.00;99334.56;5072702;28;20208;-81
2023/08/23 01:42:39;;;;;;;8.65;7.70;;;;;;;23.42;100.00;99341.72;5095601;28;20199;-80
2023/08/23 01:45:08;;;;;;;9.15;8.35;;;;;;;23.40;100.00;99341.22;5078571;28;20192;-81
2023/08/23 01:47:36;;;;;;;8.57;7.75;;;;;;;23.35;100.00;99335.88;5092821;28;20200;-83
2023/08/23 01:50:04;;;;;;;9.15;8.32;;;;;;;23.31;100.00;99339.53;5091736;28;20617;-80
2023/08/23 01:52:32;;;;;;;9.15;8.38;;;;;;;23.24;100.00;99343.50;5099431;28;20193;-81
2023/08/23 01:55:00;;;;;;;9.63;8.57;;;;;;;23.20;100.00;99352.63;5100860;28;20685;-81
2023/08/23 01:57:30;;;;;;;8.57;7.93;;;;;;;23.12;100.00;99354.19;5095506;28;20740;-83
2023/08/23 01:59:57;;;;;;;9.73;8.45;;;;;;;23.05;100.00;99342.06;5099960;28;20192;-80
2023/08/23 02:02:24;;;;;;;9.82;8.73;;;;;;;23.01;100.00;99335.59;5093600;28;20692;-81
2023/08/23 02:04:51;;;;;;;8.98;8.27;;;;;;;22.98;100.00;99342.50;5087854;28;20716;-81
2023/08/23 02:07:19;;;;;;;9.60;8.68;;;;;;;22.95;100.00;99334.09;5091274;28;20206;-81
2023/08/23 02:09:47;;;;;;;10.20;8.52;;;;;;;22.92;100.00;99335.50;5093905;28;20223;-81
2023/08/23 02:12:14;;;;;;;10.13;9.23;;;;;;;22.88;100.00;99337.25;5099526;28;20212;-82
2023/08/23 02:14:42;;;;;;;9.00;8.30;;;;;;;22.84;100.00;99330.78;5097006;28;20754;-80
2023/08/23 02:17:10;;;;;;;10.63;9.55;;;;;;;22.81;100.00;99336.88;5096925;28;20214;-84
2023/08/23 02:19:39;;;;;;;9.55;8.65;;;;;;;22.76;100.00;99321.41;5091380;28;20200;-83
2023/08/23 02:22:07;;;;;;;10.05;9.13;;;;;;;22.72;100.00;99327.78;5100546;28;20641;-83
2023/08/23 02:24:36;;;;;;;9.70;8.77;;;;;;;22.65;100.00;99325.44;5098022;28;20184;-82
2023/08/23 02:27:03;;;;;;;11.07;9.10;;;;;;;22.62;100.00;99326.06;5086620;28;20214;-81
2023/08/23 02:29:33;;;;;;;9.98;9.05;;;;;;;22.59;100.00;99331.28;5093764;28;20188;-80
2023/08/23 02:32:02;;;;;;;10.00;9.10;;;;;;;22.54;100.00;99323.22;5106429;28;20190;-81
2023/08/23 02:34:30;;;;;;;11.65;8.88;;;;;;;22.51;100.00;99319.19;5089398;28;20275;-81
2023/08/23 02:36:57;;;;;;;10.63;9.63;;;;;;;22.47;100.00;99328.28;5094324;28;20220;-82
2023/08/23 02:39:27;;;;;;;9.98;8.98;;;;;;;22.43;100.00;99322.63;5094214;28;20205;-82
2023/08/23 02:41:55;;;;;;;10.45;9.30;;;;;;;22.39;100.00;99322.44;5098256;28;20301;-82
2023/08/23 02:44:23;;;;;;;9.75;8.95;;;;;;;22.37;100.00;99313.75;5105887;28;20309;-81
2023/08/23 02:46:51;;;;;;;9.30;8.57;;;;;;;22.37;100.00;99324.66;5093271;28;20280;-81
2023/08/23 02:49:18;;;;;;;9.63;8.82;;;;;;;22.34;100.00;99311.63;5092183;28;20210;-81
2023/08/23 02:51:47;;;;;;;10.45;9.45;;;;;;;22.32;100.00;99308.38;5090619;28;20219;-81
2023/08/23 02:54:15;;;;;;;10.25;9.25;;;;;;;22.26;100.00;99304.13;5082154;28;20238;-81
2023/08/23 02:56:45;;;;;;;10.20;9.40;;;;;;;22.22;100.00;99308.59;5088033;28;20220;-81
2023/08/23 02:59:13;;;;;;;9.70;8.90;;;;;;;22.19;100.00;99311.94;5066155;28;20223;-82
2023/08/23 03:01:41;;;;;;;9.32;8.57;;;;;;;22.14;100.00;99312.03;5090638;28;20634;-81
2023/08/23 03:04:08;;;;;;;9.73;8.82;;;;;;;22.10;100.00;99311.03;5077526;28;20226;-82
2023/08/23 03:06:36;;;;;;;11.13;9.07;;;;;;;22.08;100.00;99313.22;5100691;28;20205;-84
2023/08/23 03:09:05;;;;;;;9.65;8.85;;;;;;;22.04;100.00;99305.97;5098080;28;20737;-81
2023/08/23 03:11:33;;;;;;;10.15;9.10;;;;;;;22.02;100.00;99308.19;5082575;28;20600;-82
2023/08/23 03:14:00;;;;;;;9.60;8.80;;;;;;;21.97;100.00;99300.91;5052392;28;20200;-82
2023/08/23 03:16:27;;;;;;;9.68;8.88;;;;;;;21.98;100.00;99305.25;5092634;28;20239;-83
2023/08/23 03:18:55;;;;;;;9.75;8.95;;;;;;;21.94;100.00;99301.50;5101139;28;20211;-81
2023/08/23 03:21:25;;;;;;;9.93;9.13;;;;;;;21.92;100.00;99303.72;5073618;28;20200;-82
2023/08/23 03:23:53;;;;;;;10.73;9.25;;;;;;;21.89;100.00;99304.28;5075266;28;20200;-85
2023/08/23 03:26:21;;;;;;;9.80;9.00;;;;;;;21.86;100.00;99303.00;5094606;28;20670;-82
2023/08/23 03:28:49;;;;;;;9.63;8.77;;;;;;;21.86;100.00;99307.63;5099034;28;20237;-83
2023/08/23 03:31:16;;;;;;;10.27;8.88;;;;;;;21.81;100.00;99297.63;5096583;28;20184;-82
2023/08/23 03:33:45;;;;;;;10.00;9.10;;;;;;;21.79;100.00;99307.22;5094101;28;20224;-81
2023/08/23 03:36:13;;;;;;;10.23;9.27;;;;;;;21.73;100.00;99306.50;5078618;28;20311;-81
2023/08/23 03:38:40;;;;;;;9.43;8.63;;;;;;;21.71;100.00;99308.72;5093932;28;20223;-81
2023/08/23 03:41:14;;;;;;;9.70;8.85;;;;;;;21.69;100.00;99313.69;5096843;28;20215;-82
2023/08/23 03:43:44;;;;;;;10.20;9.20;;;;;;;21.68;100.00;99317.50;5087731;28;20546;-82
2023/08/23 03:46:13;;;;;;;10.63;9.60;;;;;;;21.64;100.00;99313.75;5089687;28;20250;-83
2023/08/23 03:48:40;;;;;;;10.07;9.18;;;;;;;21.65;100.00;99307.19;5082665;28;20563;-81
2023/08/23 03:51:08;;;;;;;10.65;9.65;;;;;;;21.64;100.00;99305.59;5093728;28;20213;-81
2023/08/23 03:53:36;;;;;;;11.05;9.93;;;;;;;21.62;100.00;99302.34;5087200;28;20220;-81
2023/08/23 03:56:04;;;;;;;10.63;9.63;;;;;;;21.60;100.00;99301.84;5092266;28;20214;-82
2023/08/23 03:58:32;;;;;;;9.75;9.05;;;;;;;21.61;100.00;99302.63;5070955;28;20203;-82
2023/08/23 04:00:59;;;;;;;9.65;8.90;;;;;;;21.59;100.00;99307.59;5085015;28;20268;-84
2023/08/23 04:03:27;;;;;;;10.20;9.20;;;;;;;21.57;100.00;99310.59;5091771;28;20203;-81
2023/08/23 04:05:58;;;;;;;10.93;9.65;;;;;;;21.53;100.00;99313.13;5090995;28;20208;-81
2023/08/23 04:08:26;;;;;;;10.43;9.63;;;;;;;21.55;100.00;99323.75;5093488;28;20204;-82
2023/08/23 04:10:54;;;;;;;10.30;9.40;;;;;;;21.57;100.00;99326.16;5093444;28;20249;-84
2023/08/23 04:13:21;;;;;;;10.45;9.43;;;;;;;21.62;100.00;99326.06;5093346;28;20198;-81
2023/08/23 04:15:49;;;;;;;11.00;9.90;;;;;;;21.59;100.00;99326.66;5076562;28;20724;-81
2023/08/23 04:18:17;;;;;;;10.75;9.70;;;;;;;21.41;100.00;99325.63;5097148;28;20195;-82
2023/08/23 04:20:44;;;;;;;10.98;9.90;;;;;;;21.35;100.00;99324.88;5081388;28;20234;-82
2023/08/23 04:23:12;;;;;;;10.30;9.48;;;;;;;21.31;100.00;99332.03;5078447;28;20263;-82
2023/08/23 04:25:40;;;;;;;11.95;10.20;;;;;;;21.32;100.00;99338.28;5088692;28;20681;-82
2023/08/23 04:28:08;;;;;;;11.50;10.40;;;;;;;21.31;100.00;99339.41;5084323;28;20204;-82
2023/08/23 04:30:42;;;;;;;11.57;10.50;;;;;;;21.32;100.00;99336.34;5084752;28;20206;-82
2023/08/23 04:33:11;;;;;;;11.75;10.55;;;;;;;21.36;100.00;99340.13;5075436;28;20236;-83
2023/08/23 04:35:41;;;;;;;11.60;10.60;;;;;;;21.46;100.00;99339.16;5074141;28;20199;-83
2023/08/23 04:38:13;;;;;;;11.00;10.10;;;;;;;21.60;100.00;99347.38;5092577;28;20196;-82
2023/08/23 04:40:43;;;;;;;12.00;10.88;;;;;;;21.71;100.00;99344.16;5090863;28;20614;-83
2023/08/23 04:43:13;;;;;;;12.38;11.15;;;;;;;21.84;100.00;99348.00;5073379;28;20209;-82
2023/08/23 04:45:40;;;;;;;12.02;11.02;;;;;;;22.00;100.00;99363.03;5092607;28;20220;-81
2023/08/23 04:48:09;;;;;;;12.20;11.10;;;;;;;22.16;100.00;99358.13;5073310;28;20291;-81
2023/08/23 04:50:38;;;;;;;12.07;11.07;;;;;;;22.33;100.00;99361.88;5073571;28;20220;-81
2023/08/23 04:53:05;;;;;;;11.82;10.82;;;;;;;22.44;100.00;99369.84;5075958;28;20200;-81
2023/08/23 04:55:33;;;;;;;14.75;11.48;;;;;;;22.57;100.00;99361.66;5092437;28;20196;-81
2023/08/23 04:58:00;;;;;;;12.13;10.88;;;;;;;22.66;100.00;99368.00;5098258;28;20207;-80
2023/08/23 05:00:28;;;;;;;12.57;11.52;;;;;;;22.77;100.00;99376.81;5074860;28;20291;-80
2023/08/23 05:02:55;;;;;;;13.23;12.00;;;;;;;22.87;100.00;99370.31;5090764;28;20200;-81
2023/08/23 05:05:24;;;;;;;12.75;11.45;;;;;;;23.02;100.00;99368.06;5092264;28;20196;-81
2023/08/23 05:07:53;;;;;;;11.88;10.68;;;;;;;23.17;100.00;99369.66;5089856;28;20204;-81
2023/08/23 05:10:21;;;;;;;12.07;10.98;;;;;;;23.30;100.00;99371.53;5096280;28;20199;-82
2023/08/23 05:12:49;;;;;;;11.10;10.02;;;;;;;23.41;100.00;99377.56;5093795;28;20230;-80
2023/08/23 05:15:18;;;;;;;11.35;10.45;;;;;;;23.56;100.00;99375.28;5094721;28;20206;-81
2023/08/23 05:17:46;;;;;;;11.18;10.27;;;;;;;23.77;100.00;99385.72;5076172;28;20313;-81
2023/08/23 05:20:14;;;;;;;11.07;10.18;;;;;;;23.95;100.00;99387.44;5094206;28;20203;-80
2023/08/23 05:22:43;;;;;;;11.80;10.70;;;;;;;24.10;100.00;99379.66;5092624;28;20188;-81
2023/08/23 05:25:12;;;;;;;11.38;10.05;;;;;;;24.31;100.00;99376.41;5086511;28;20223;-80
2023/08/23 05:27:39;;;;;;;11.05;10.05;;;;;;;24.51;100.00;99386.78;5092901;28;20655;-80
2023/08/23 05:30:08;;;;;;;11.07;10.10;;;;;;;24.73;100.00;99391.38;5092579;28;20661;-80
2023/08/23 05:32:36;;;;;;;10.35;9.48;;;;;;;24.99;100.00;99389.50;5092618;28;20210;-81
2023/08/23 05:35:03;;;;;;;11.20;10.18;;;;;;;25.21;100.00;99389.38;5097109;28;20195;-81
2023/08/23 05:37:31;;;;;;;12.30;11.30;;;;;;;25.47;100.00;99374.84;5092945;28;20220;-81
2023/08/23 05:40:00;;;;;;;11.25;10.15;;;;;;;25.77;100.00;99371.13;5091769;28;20295;-82
2023/08/23 05:42:27;;;;;;;11.00;10.05;;;;;;;26.07;100.00;99377.53;5094201;28;20216;-81
2023/08/23 05:44:57;;;;;;;10.55;9.57;;;;;;;26.40;100.00;99386.00;5099788;28;20205;-83
2023/08/23 05:47:27;;;;;;;11.38;10.27;;;;;;;26.60;100.00;99383.28;5094201;28;20296;-80
2023/08/23 05:49:56;;;;;;;10.18;9.20;;;;;;;26.80;100.00;99400.16;5095474;28;20583;-81
2023/08/23 05:52:25;;;;;;;11.27;10.13;;;;;;;26.83;100.00;99402.25;5093286;28;20679;-84
2023/08/23 05:54:52;;;;;;;10.65;9.75;;;;;;;26.95;100.00;99410.63;5097006;28;20192;-82
2023/08/23 05:57:21;;;;;;;10.85;9.85;;;;;;;27.32;100.00;99414.41;5067732;28;20217;-80
2023/08/23 05:59:48;;;;;;;10.82;9.80;;;;;;;27.41;100.00;99410.44;5099687;28;20196;-80
2023/08/23 06:02:16;;;;;;;11.05;9.98;;;;;;;27.46;100.00;99417.69;5091405;28;20273;-80
2023/08/23 06:04:45;;;;;;;12.68;10.18;;;;;;;27.91;100.00;99415.03;5083968;28;20647;-80
2023/08/23 06:07:15;;;;;;;14.73;9.60;;;;;;;28.01;100.00;99417.34;5083686;28;20188;-80
2023/08/23 06:09:42;;;;;;;11.20;10.10;;;;;;;28.24;100.00;99420.53;5108592;28;20197;-80
2023/08/23 06:12:10;;;;;;;11.13;9.30;;;;;;;28.73;100.00;99433.28;5092637;28;20196;-80
2023/08/23 06:14:38;;;;;;;10.00;9.13;;;;;;;28.63;100.00;99425.41;5093226;28;20204;-79
2023/08/23 06:17:06;;;;;;;11.07;9.57;;;;;;;28.80;100.00;99435.44;5088501;28;20635;-80
2023/08/23 06:19:33;;;;;;;10.70;9.65;;;;;;;28.63;100.00;99441.97;5083960;28;20332;-79
2023/08/23 06:22:00;;;;;;;9.98;8.98;;;;;;;29.19;100.00;99448.50;5086568;28;20562;-79
2023/08/23 06:24:28;;;;;;;10.00;9.00;;;;;;;29.24;100.00;99451.03;5075264;28;20279;-79
2023/08/23 06:26:55;;;;;;;10.23;9.38;;;;;;;28.82;100.00;99450.50;5089514;28;20200;-83
2023/08/23 06:29:22;;;;;;;10.20;9.20;;;;;;;28.75;100.00;99460.47;5085863;28;20193;-79
2023/08/23 06:31:49;;;;;;;10.55;9.60;;;;;;;28.41;100.00;99472.72;5090029;28;20287;-81
2023/08/23 06:34:17;;;;;;;10.45;9.27;;;;;;;28.14;100.00;99479.63;5090041;28;20231;-80
2023/08/23 06:36:44;;;;;;;12.63;9.38;;;;;;;27.67;100.00;99473.53;5085623;28;20565;-80
2023/08/23 06:39:11;;;;;;;12.90;10.10;;;;;;;27.48;100.00;99482.25;5092901;28;20264;-80
2023/08/23 06:41:58;;;;;;;10.68;9.15;;;;;;;27.39;100.00;99478.72;5092580;28;20777;-83
2023/08/23 06:44:25;;;;;;;9.88;9.00;;;;;;;27.30;100.00;99468.94;5090046;28;20200;-87
2023/08/23 06:46:52;;;;;;;9.95;8.90;;;;;;;27.12;100.00;99455.31;5093139;28;20196;-82
2023/08/23 06:49:19;;;;;;;10.38;9.40;;;;;;;27.04;100.00;99460.84;5091301;28;20193;-84
2023/08/23 06:51:46;;;;;;;14.00;9.15;;;;;;;27.00;100.00;99446.97;5091466;28;20266;-81
2023/08/23 06:54:13;;;;;;;11.25;9.40;;;;;;;26.93;100.00;99437.63;5093716;28;20195;-80
2023/08/23 06:56:41;;;;;;;10.43;9.32;;;;;;;26.86;100.00;99451.91;5091353;28;20231;-80
2023/08/23 06:59:08;;;;;;;10.55;9.48;;;;;;;26.76;100.00;99455.00;5092251;28;20189;-80
2023/08/23 07:01:35;;;;;;;10.10;9.07;;;;;;;26.57;100.00;99471.06;5091364;28;20188;-80
2023/08/23 07:04:02;;;;;;;10.60;8.73;;;;;;;26.44;100.00;99480.31;5095682;28;20199;-80
2023/08/23 07:06:30;;;;;;;10.02;9.13;;;;;;;26.27;100.00;99484.72;5090295;28;20192;-84
2023/08/23 07:08:58;;;;;;;10.00;8.88;;;;;;;26.20;100.00;99494.56;5089341;28;20196;-81
2023/08/23 07:11:25;;;;;;;10.00;9.00;;;;;;;26.12;100.00;99507.19;5086012;28;20205;-81
2023/08/23 07:13:52;;;;;;;10.15;9.25;;;;;;;26.00;100.00;99508.97;5089340;28;20622;-84
2023/08/23 07:16:19;;;;;;;9.82;8.88;;;;;;;25.88;100.00;99512.38;5085600;28;20192;-82
2023/08/23 07:18:46;;;;;;;10.23;9.20;;;;;;;25.73;100.00;99507.34;5087268;28;20193;-81
2023/08/23 07:21:14;;;;;;;11.30;9.70;;;;;;;25.59;100.00;99506.69;5088687;28;20643;-82
2023/08/23 07:23:41;;;;;;;10.23;9.38;;;;;;;25.51;100.00;99502.81;5093835;28;20214;-81
2023/08/23 07:26:09;;;;;;;10.60;9.60;;;;;;;25.42;100.00;99494.56;5096413;28;20188;-82
2023/08/23 07:28:36;;;;;;;10.13;9.23;;;;;;;25.33;100.00;99496.50;5096812;28;20197;-82
2023/08/23 07:31:03;;;;;;;10.25;9.35;;;;;;;25.32;100.00;99485.84;5095417;28;20253;-82
2023/08/23 07:33:30;;;;;;;10.15;9.25;;;;;;;25.30;100.00;99485.34;5097201;28;20231;-82
2023/08/23 07:36:01;;;;;;;11.40;10.20;;;;;;;25.27;100.00;99485.97;5095231;28;20192;-82
2023/08/23 07:38:32;;;;;;;10.73;9.63;;;;;;;25.13;100.00;99496.28;5089797;28;20223;-82
2023/08/23 07:41:05;;;;;;;10.30;9.40;;;;;;;25.09;100.00;99492.56;5094766;28;20203;-82
2023/08/23 07:43:33;;;;;;;10.00;9.20;;;;;;;25.08;100.00;99513.66;5090758;28;20203;-81
2023/08/23 07:46:03;;;;;;;10.90;9.82;;;;;;;25.08;100.00;99516.41;5092001;28;20173;-82
2023/08/23 07:48:30;;;;;;;11.15;10.07;;;;;;;25.04;100.00;99507.22;5096330;28;20210;-82
2023/08/23 07:51:01;;;;;;;11.23;10.13;;;;;;;24.96;100.00;99513.47;5094314;28;20204;-82
2023/08/23 07:53:29;;;;;;;10.40;9.50;;;;;;;24.85;100.00;99506.63;5092991;28;20275;-81
2023/08/23 07:55:57;;;;;;;10.95;10.05;;;;;;;24.76;100.00;99503.03;5086948;28;20199;-82
2023/08/23 07:58:24;;;;;;;11.35;10.32;;;;;;;24.65;100.00;99502.50;5086214;28;20215;-84
2023/08/23 08:00:51;;;;;;;10.93;9.93;;;;;;;24.62;100.00;99507.81;5098103;28;20283;-82
2023/08/23 08:03:18;;;;;;;11.15;9.15;;;;;;;24.34;100.00;99498.97;5091914;28;20208;-82
2023/08/23 08:05:46;;;;;;;10.10;9.10;;;;;;;23.96;100.00;99507.53;5099238;28;20218;-82
2023/08/23 08:08:12;;;;;;;9.82;8.80;;;;;;;23.88;100.00;99505.56;5093411;28;20210;-82
2023/08/23 08:10:40;;;;;;;10.15;8.73;;;;;;;23.91;100.00;99504.09;5100589;28;20196;-82
2023/08/23 08:13:06;;;;;;;9.18;8.38;;;;;;;24.03;100.00;99509.81;5094834;28;20192;-82
2023/08/23 08:15:34;;;;;;;9.07;8.27;;;;;;;24.10;100.00;99505.53;5098129;28;20711;-84
2023/08/23 08:18:02;;;;;;;10.73;8.43;;;;;;;24.15;100.00;99504.63;5093282;28;20221;-81
2023/08/23 08:20:29;;;;;;;9.93;9.00;;;;;;;24.01;100.00;99503.88;5098217;28;20199;-82
2023/08/23 08:22:56;;;;;;;8.88;8.07;;;;;;;24.13;100.00;99501.38;5102680;28;20195;-83
2023/08/23 08:25:23;;;;;;;11.27;8.55;;;;;;;24.13;100.00;99499.44;5099864;28;20195;-82
2023/08/23 08:27:50;;;;;;;9.10;8.20;;;;;;;24.07;100.00;99497.97;5094785;28;20722;-83
2023/08/23 08:30:18;;;;;;;9.38;8.38;;;;;;;24.14;100.00;99503.00;5092850;28;20661;-82
2023/08/23 08:32:45;;;;;;;8.73;7.82;;;;;;;24.20;100.00;99506.44;5087305;28;20197;-81
2023/08/23 08:35:12;;;;;;;9.50;7.93;;;;;;;24.29;100.00;99513.59;5092554;28;20239;-82
2023/08/23 08:37:38;;;;;;;9.73;7.90;;;;;;;24.32;100.00;99507.47;5082746;28;20226;-82
2023/08/23 08:40:06;;;;;;;8.77;7.95;;;;;;;24.40;100.00;99512.19;5093137;28;20193;-82
2023/08/23 08:42:33;;;;;;;9.32;8.02;;;;;;;24.60;100.00;99518.25;5094037;28;20196;-82
2023/08/23 08:45:00;;;;;;;8.00;7.30;;;;;;;24.77;100.00;99521.91;5093718;28;20192;-81
2023/08/23 08:47:26;;;;;;;8.50;7.75;;;;;;;24.98;100.00;99533.94;5097300;28;20187;-86
2023/08/23 08:49:53;;;;;;;9.73;8.18;;;;;;;25.12;100.00;99536.56;5094074;28;20671;-82
2023/08/23 08:52:24;;;;;;;8.73;7.78;;;;;;;25.25;100.00;99540.31;5093816;28;20192;-82
2023/08/23 08:54:53;;;;;;;8.82;8.00;;;;;;;25.46;100.00;99541.34;5093989;28;20262;-84
2023/08/23 08:57:20;;;;;;;8.88;7.97;;;;;;;25.70;100.00;99540.94;5099284;28;20212;-82
2023/08/23 08:59:47;;;;;;;8.32;7.53;;;;;;;25.95;100.00;99551.09;5094109;28;20196;-81
2023/08/23 09:02:16;;;;;;;10.30;7.93;;;;;;;26.24;100.00;99555.97;5092556;28;20516;-81
2023/08/23 09:04:46;;;;;;;9.13;7.82;;;;;;;26.46;100.00;99554.97;5090507;28;20202;-82
2023/08/23 09:07:14;;;;;;;14.05;7.95;;;;;;;26.80;100.00;99563.13;5093549;28;20278;-82
2023/08/23 09:09:42;;;;;;;11.15;8.30;;;;;;;26.95;100.00;99559.88;5090582;28;20189;-80
2023/08/23 09:12:10;;;;;;;12.93;8.23;;;;;;;27.30;100.00;99565.19;5093117;28;20684;-82
2023/08/23 09:14:37;;;;;;;12.30;8.07;;;;;;;27.46;100.00;99571.75;5090365;28;20199;-82
2023/08/23 09:17:07;;;;;;;12.40;8.75;;;;;;;27.74;100.00;99564.66;5094270;28;20240;-83
2023/08/23 09:19:36;;;;;;;9.20;8.30;;;;;;;27.67;100.00;99569.84;5094179;28;20200;-82
2023/08/23 09:22:04;;;;;;;11.88;8.30;;;;;;;27.73;100.00;99571.28;5090173;28;20192;-82
2023/08/23 09:24:30;;;;;;;9.05;8.15;;;;;;;27.98;100.00;99563.97;5084625;28;20643;-82
2023/08/23 09:26:57;;;;;;;12.02;8.52;;;;;;;27.79;100.00;99561.69;5090215;28;20196;-86
2023/08/23 09:29:24;;;;;;;8.82;7.90;;;;;;;28.31;100.00;99559.34;5071129;28;20211;-82
2023/08/23 09:31:51;;;;;;;11.82;8.40;;;;;;;28.93;100.00;99561.13;5079585;28;20192;-82
2023/08/23 09:34:18;;;;;;;8.88;7.97;;;;;;;29.41;100.00;99554.03;5079522;28;20221;-81
2023/08/23 09:36:46;;;;;;;9.30;8.50;;;;;;;29.65;100.00;99557.59;5080514;28;20193;-81
2023/08/23 09:39:13;;;;;;;9.10;8.18;;;;;;;29.89;100.00;99551.22;5087805;28;20242;-81
2023/08/23 09:42:06;;;;;;;10.10;7.95;;;;;;;30.25;100.00;99552.25;5119790;27;20546;-82
2023/08/23 09:44:40;;;;;;;8.82;7.97;;;;;;;30.41;100.00;99539.28;5084773;28;20203;-81
2023/08/23 09:47:17;;;;;;;9.73;7.63;;;;;;;30.64;100.00;99547.81;5079669;28;20183;-80
2023/08/23 09:49:48;;;;;;;9.93;7.70;;;;;;;30.56;100.00;99538.56;5098838;28;20200;-80
2023/08/23 09:52:25;;;;;;;8.13;7.43;;;;;;;30.65;100.00;99541.16;5086268;28;20200;-79
2023/08/23 09:55:08;;;;;;;7.65;6.80;;;;;;;31.03;100.00;99541.34;5084236;28;20192;-81
2023/08/23 09:57:43;;;;;;;10.93;7.22;;;;;;;31.11;100.00;99528.50;5081880;28;20189;-81
2023/08/23 10:00:14;;;;;;;8.20;7.50;;;;;;;31.30;100.00;99529.38;5081136;28;20280;-81
2023/08/23 10:02:44;;;;;;;7.97;7.18;;;;;;;31.46;100.00;99524.59;5080498;28;20207;-80
2023/08/23 10:05:12;;;;;;;8.40;7.57;;;;;;;31.31;100.00;99519.88;5106480;28;20200;-80
2023/08/23 10:07:42;;;;;;;8.82;8.02;;;;;;;31.33;100.00;99517.56;5097213;28;20254;-81
2023/08/23 10:10:17;;;;;;;8.45;7.15;;;;;;;31.37;100.00;99517.66;5097748;28;20196;-80
2023/08/23 10:12:51;;;;;;;8.52;7.50;;;;;;;31.30;100.00;99512.78;5078238;28;20253;-80
2023/08/23 10:15:42;;;;;;;8.65;7.43;;;;;;;31.04;100.00;99510.56;5070067;28;20204;-80
2023/08/23 10:18:15;;;;;;;8.35;7.47;;;;;;;30.74;100.00;99514.13;5095591;28;20195;-79
2023/08/23 10:20:51;;;;;;;7.78;7.07;;;;;;;30.88;100.00;99512.53;5096131;28;20305;-80
2023/08/23 10:23:39;;;;;;;7.68;7.07;;;;;;;31.01;100.00;99497.47;5098034;28;20199;-81
2023/08/23 10:26:21;;;;;;;8.75;6.75;;;;;;;30.92;100.00;99496.00;5056697;28;20262;-79
2023/08/23 10:28:51;;;;;;;8.30;7.60;;;;;;;31.24;100.00;99499.56;5065263;28;20212;-80
2023/08/23 10:31:25;;;;;;;7.88;6.95;;;;;;;30.63;100.00;99507.50;5072358;28;20205;-81
2023/08/23 10:33:57;;;;;;;8.05;7.35;;;;;;;30.34;100.00;99489.34;5058973;28;20192;-81
2023/08/23 10:36:29;;;;;;;7.35;6.75;;;;;;;30.50;100.00;99485.47;5091210;28;20249;-80
2023/08/23 10:38:58;;;;;;;7.30;6.45;;;;;;;30.91;100.00;99483.34;5054273;28;20203;-79
2023/08/23 10:41:28;;;;;;;7.15;6.55;;;;;;;31.03;100.00;99483.25;5075625;28;20713;-80
2023/08/23 10:44:06;;;;;;;7.47;6.70;;;;;;;30.08;100.00;99476.81;5054206;28;20193;-80
2023/08/23 10:46:46;;;;;;;7.20;6.63;;;;;;;30.27;100.00;99480.88;5055131;28;20213;-82
2023/08/23 10:49:16;;;;;;;9.85;6.72;;;;;;;30.70;100.00;99464.25;5064223;28;20192;-83
2023/08/23 10:51:43;;;;;;;9.75;6.35;;;;;;;30.41;100.00;99468.22;5053565;28;20683;-79
2023/08/23 10:54:12;;;;;;;6.72;6.07;;;;;;;30.07;100.00;99460.59;5005946;28;20205;-81
2023/08/23 10:56:42;;;;;;;6.65;6.05;;;;;;;30.32;100.00;99467.59;5036005;28;20190;-81
2023/08/23 10:59:09;;;;;;;8.05;6.47;;;;;;;30.83;100.00;99459.44;5039495;28;20201;-80
2023/08/23 11:01:39;;;;;;;5.65;5.05;;;;;;;30.91;100.00;99450.94;5041166;28;20226;-81
2023/08/23 11:04:16;;;;;;;5.88;4.88;;;;;;;31.03;100.00;99456.38;5036385;28;20205;-81
2023/08/23 11:06:43;;;;;;;7.35;5.07;;;;;;;30.95;100.00;99449.06;5061565;28;20201;-81
2023/08/23 11:09:15;;;;;;;5.85;5.30;;;;;;;31.06;100.00;99449.34;5041149;28;20255;-79
2023/08/23 11:11:45;;;;;;;5.25;4.80;;;;;;;30.95;100.00;99446.28;5052720;28;20213;-81
2023/08/23 11:14:15;;;;;;;5.32;4.80;;;;;;;31.06;100.00;99441.03;5050947;28;20221;-82
2023/08/23 11:16:48;;;;;;;5.80;5.30;;;;;;;31.24;100.00;99439.47;5038525;28;20201;-81
2023/08/23 11:19:16;;;;;;;5.70;5.25;;;;;;;31.21;100.00;99437.44;5034110;28;20210;-80
2023/08/23 11:21:49;;;;;;;5.47;4.95;;;;;;;31.47;100.00;99422.97;5015741;28;20670;-80
2023/08/23 11:24:19;;;;;;;5.00;4.60;;;;;;;31.73;100.00;99431.44;5035012;28;20190;-80
2023/08/23 11:26:52;;;;;;;4.85;4.40;;;;;;;31.75;100.00;99426.34;5020953;28;20228;-81
2023/08/23 11:29:22;;;;;;;4.20;3.90;;;;;;;31.77;100.00;99424.03;5042390;28;20248;-80